Time;durP1;ratioP1;P1;durP2;ratioP2;P2;SDS_P1;SDS_P2;PMS_P1;PMS_P2;Temp;Humidity;BMP_temperature;BMP_pressure;BME280_temperature;BME280_humidity;BME280_pressure;Samples;Min_cycle;Max_cycle;Signal;HPM_P1;HPM_P2
2021/12/07 08:59:49;;;;;;;19.87;10.83;;;2.80;99.90;;;;;;5100966;27;20403;-74
2021/12/07 09:02:19;;;;;;;19.07;9.90;;;2.70;99.90;;;;;;5104577;28;20290;-74
2021/12/07 09:04:46;;;;;;;19.17;10.23;;;2.70;99.90;;;;;;5102007;28;20510;-71
2021/12/07 09:07:11;;;;;;;20.67;10.83;;;2.80;99.90;;;;;;5096353;28;20286;-70
2021/12/07 09:09:38;;;;;;;22.60;10.43;;;2.80;99.90;;;;;;5086428;28;20769;-70
2021/12/07 09:12:06;;;;;;;17.43;10.17;;;2.90;99.90;;;;;;5086047;28;20044;-70
2021/12/07 09:14:33;;;;;;;21.33;10.93;;;3.00;99.90;;;;;;5086866;28;20286;-70
2021/12/07 09:16:59;;;;;;;17.93;10.50;;;3.10;99.90;;;;;;5086818;28;20294;-70
2021/12/07 09:19:25;;;;;;;19.97;10.20;;;3.20;99.90;;;;;;5119815;28;20338;-73
2021/12/07 09:21:51;;;;;;;17.80;9.63;;;3.30;99.90;;;;;;5088361;28;20315;-73
2021/12/07 09:24:16;;;;;;;17.23;8.80;;;3.30;99.90;;;;;;5123881;27;20036;-76
2021/12/07 09:26:42;;;;;;;20.43;10.10;;;3.40;99.90;;;;;;5107090;28;20357;-74
2021/12/07 09:29:08;;;;;;;19.77;10.17;;;3.40;99.90;;;;;;5109018;28;20040;-73
2021/12/07 09:31:34;;;;;;;20.40;9.53;;;3.50;99.90;;;;;;5106111;28;20043;-71
2021/12/07 09:34:00;;;;;;;17.93;9.53;;;3.50;99.90;;;;;;5105009;28;20043;-74
2021/12/07 09:36:26;;;;;;;16.90;10.07;;;3.60;99.90;;;;;;5106765;28;20793;-75
2021/12/07 09:38:52;;;;;;;19.93;9.50;;;3.60;99.90;;;;;;5107513;28;20403;-71
2021/12/07 09:41:18;;;;;;;17.33;10.40;;;3.70;99.90;;;;;;5107086;28;20032;-72
2021/12/07 09:43:45;;;;;;;16.80;8.87;;;3.80;99.90;;;;;;5106339;28;20054;-72
2021/12/07 09:46:12;;;;;;;16.40;8.77;;;3.80;99.90;;;;;;5108147;28;20349;-74
2021/12/07 09:48:39;;;;;;;16.53;8.43;;;3.90;99.90;;;;;;5107410;28;20298;-73
2021/12/07 09:51:07;;;;;;;15.90;8.83;;;3.90;99.90;;;;;;5108542;28;20634;-70
2021/12/07 09:53:33;;;;;;;20.17;8.93;;;4.00;99.90;;;;;;5106575;28;20301;-74
2021/12/07 09:56:00;;;;;;;15.20;8.67;;;4.00;99.90;;;;;;5107929;28;20282;-71
2021/12/07 09:58:26;;;;;;;16.17;9.30;;;4.10;99.90;;;;;;5106576;28;20359;-72
2021/12/07 10:00:52;;;;;;;13.23;9.57;;;4.10;99.90;;;;;;5107955;28;20773;-71
2021/12/07 10:03:20;;;;;;;20.73;9.37;;;4.10;99.90;;;;;;5108526;28;20508;-72
2021/12/07 10:05:45;;;;;;;54.80;50.63;;;4.10;99.90;;;;;;5106770;28;20797;-75
2021/12/07 10:08:12;;;;;;;16.63;9.53;;;4.20;99.90;;;;;;5106815;28;20297;-72
2021/12/07 10:10:41;;;;;;;19.93;10.77;;;4.20;99.90;;;;;;5096446;28;20048;-72
2021/12/07 10:13:08;;;;;;;22.33;10.63;;;4.30;99.90;;;;;;5093473;28;20801;-72
2021/12/07 10:15:34;;;;;;;17.27;9.73;;;4.20;99.90;;;;;;5093918;28;20278;-72
2021/12/07 10:18:07;;;;;;;18.97;11.07;;;4.20;99.90;;;;;;5094428;28;20314;-71
2021/12/07 10:20:40;;;;;;;22.63;17.43;;;4.30;99.90;;;;;;5092691;28;20301;-71
2021/12/07 11:31:49;;;;;;;13.33;5.60;;;5.90;99.90;;;;;;5129712;28;20296;-72
2021/12/07 11:34:26;;;;;;;18.17;12.03;;;6.00;99.90;;;;;;5130734;27;20285;-70
2021/12/07 11:37:04;;;;;;;13.37;6.23;;;6.10;99.90;;;;;;5129618;27;20288;-71
2021/12/07 11:39:35;;;;;;;18.73;13.27;;;6.20;99.90;;;;;;5128147;28;20645;-75
2021/12/07 11:42:03;;;;;;;13.57;5.43;;;6.30;99.90;;;;;;5129970;27;20450;-73
2021/12/07 11:44:30;;;;;;;14.10;5.43;;;6.40;99.90;;;;;;5128412;28;20514;-72
2021/12/07 11:47:00;;;;;;;15.87;6.70;;;6.40;99.90;;;;;;5127755;28;20292;-75
2021/12/07 11:49:29;;;;;;;12.73;5.33;;;6.40;99.90;;;;;;5129953;27;20044;-71
2021/12/07 11:51:58;;;;;;;16.00;7.83;;;6.50;99.90;;;;;;5127681;28;20075;-71
2021/12/07 11:54:28;;;;;;;13.23;5.77;;;6.50;99.90;;;;;;5129878;27;20064;-72
2021/12/07 11:56:54;;;;;;;13.00;5.93;;;6.60;99.90;;;;;;5128498;28;20121;-73
2021/12/07 11:59:20;;;;;;;14.33;5.40;;;6.60;99.90;;;;;;5128078;28;20184;-74
2021/12/07 12:01:48;;;;;;;13.23;4.50;;;6.60;99.90;;;;;;5129291;28;20500;-75
2021/12/07 12:04:16;;;;;;;10.97;5.20;;;6.70;99.90;;;;;;5128436;28;20491;-76
2021/12/07 12:06:45;;;;;;;15.57;4.90;;;6.70;99.90;;;;;;5127147;28;20059;-75
2021/12/07 12:09:11;;;;;;;19.90;5.77;;;6.70;99.90;;;;;;5129910;27;20054;-75
2021/12/07 12:12:14;;;;;;;9.90;4.17;;;6.70;99.90;;;;;;5128262;28;20548;-74
2021/12/07 12:15:17;;;;;;;11.63;4.67;;;6.70;99.90;;;;;;5128216;27;20044;-77
2021/12/07 12:17:58;;;;;;;10.33;5.67;;;6.70;99.90;;;;;;5128396;28;20062;-75
2021/12/07 12:21:05;;;;;;;10.70;4.90;;;6.70;99.90;;;;;;5128557;27;20428;-76
2021/12/07 12:23:49;;;;;;;16.10;4.70;;;6.70;99.90;;;;;;5127623;28;20514;-75
2021/12/07 12:26:21;;;;;;;15.67;5.93;;;6.80;99.90;;;;;;5129379;28;20055;-74
2021/12/07 12:28:49;;;;;;;12.63;5.10;;;6.80;99.90;;;;;;5126998;28;20047;-73
2021/12/07 12:31:15;;;;;;;12.07;4.47;;;6.70;99.90;;;;;;5127996;28;20047;-75
2021/12/07 12:33:51;;;;;;;11.20;4.63;;;6.70;99.90;;;;;;5128541;27;20616;-74
2021/12/07 12:36:19;;;;;;;11.27;6.80;;;6.70;99.90;;;;;;5121133;27;20431;-74
2021/12/07 13:05:34;;;;;;;15.03;4.90;;;6.50;99.90;;;;;;5085492;27;20447;-80
2021/12/07 13:08:17;;;;;;;9.02;4.53;;;6.50;99.90;;;;;;5087925;28;20278;-77
2021/12/07 13:11:01;;;;;;;11.83;5.30;;;6.50;99.90;;;;;;5088750;28;20040;-79
2021/12/07 13:13:36;;;;;;;18.17;5.82;;;6.60;99.90;;;;;;5088119;28;20302;-74
2021/12/07 13:16:17;;;;;;;11.63;6.00;;;6.60;99.90;;;;;;5087623;28;20052;-72
2021/12/07 13:18:44;;;;;;;19.23;6.18;;;6.70;99.90;;;;;;5088001;28;20049;-74
2021/12/07 13:21:37;;;;;;;14.97;5.77;;;6.70;99.90;;;;;;5088103;28;20052;-74
2021/12/07 13:24:16;;;;;;;14.47;4.80;;;6.70;99.90;;;;;;5119087;28;20056;-73
2021/12/07 13:26:49;;;;;;;10.23;5.03;;;6.70;99.90;;;;;;5087937;28;20040;-70
2021/12/07 13:29:18;;;;;;;14.97;6.83;;;6.60;99.90;;;;;;5087805;28;20059;-72
2021/12/07 13:31:53;;;;;;;14.90;4.90;;;6.70;99.90;;;;;;5088438;28;20044;-71
2021/12/07 13:34:29;;;;;;;15.03;4.97;;;6.70;99.90;;;;;;5089306;28;20127;-71
2021/12/07 13:36:58;;;;;;;17.43;6.60;;;6.70;99.90;;;;;;5089290;28;20559;-71
2021/12/07 13:39:24;;;;;;;14.97;5.33;;;6.80;99.90;;;;;;5087025;28;20048;-74
2021/12/07 13:42:28;;;;;;;14.40;5.03;;;6.80;99.90;;;;;;5087695;28;20052;-73
2021/12/07 13:45:07;;;;;;;13.27;5.03;;;6.80;99.90;;;;;;5045928;28;20056;-72
2021/12/07 13:47:36;;;;;;;17.63;6.03;;;6.80;99.90;;;;;;5084795;28;20071;-69
2021/12/07 13:50:06;;;;;;;14.90;4.57;;;6.80;99.90;;;;;;5087529;28;20047;-68
2021/12/07 13:52:39;;;;;;;19.23;5.47;;;6.80;99.90;;;;;;5088179;28;20049;-69
2021/12/07 13:55:12;;;;;;;13.07;4.83;;;6.80;99.90;;;;;;5121715;28;20075;-69
2021/12/07 13:57:41;;;;;;;17.00;5.73;;;6.80;99.90;;;;;;5087140;28;20114;-73
2021/12/07 14:00:21;;;;;;;10.53;4.57;;;6.80;99.90;;;;;;5087715;28;20350;-73
2021/12/07 14:02:54;;;;;;;13.27;5.50;;;6.70;99.90;;;;;;5086759;28;20416;-74
2021/12/07 14:05:28;;;;;;;11.43;5.50;;;6.70;99.90;;;;;;5087989;28;20079;-72
2021/12/07 14:07:55;;;;;;;12.50;5.30;;;6.60;99.90;;;;;;5087686;28;20044;-72
2021/12/07 14:10:33;;;;;;;12.63;5.63;;;6.50;99.90;;;;;;5086908;28;20049;-72
2021/12/07 14:13:00;;;;;;;13.57;5.40;;;6.50;99.90;;;;;;5087550;28;20033;-72
2021/12/07 14:15:30;;;;;;;17.40;6.20;;;6.50;99.90;;;;;;5080849;28;20052;-72
2021/12/07 14:17:59;;;;;;;12.23;5.93;;;6.40;99.90;;;;;;5074970;28;20098;-73
2021/12/07 14:20:27;;;;;;;14.63;5.67;;;6.30;99.90;;;;;;5073610;28;20054;-73
2021/12/07 14:22:54;;;;;;;14.13;5.20;;;6.20;99.90;;;;;;5074815;28;20064;-72
2021/12/07 14:25:19;;;;;;;12.10;5.30;;;6.20;99.90;;;;;;5073335;28;20048;-72
2021/12/07 14:27:46;;;;;;;18.17;6.90;;;6.10;99.90;;;;;;5073355;28;20095;-74
2021/12/07 14:30:14;;;;;;;14.87;6.10;;;6.00;99.90;;;;;;5073540;28;20041;-76
2021/12/07 14:32:44;;;;;;;12.57;7.23;;;6.00;99.90;;;;;;5074347;28;20048;-74
2021/12/07 14:35:10;;;;;;;12.93;6.10;;;5.90;99.90;;;;;;5072015;28;20056;-74
2021/12/07 14:37:36;;;;;;;14.23;6.33;;;5.80;99.90;;;;;;5074261;28;20045;-74
2021/12/07 14:40:05;;;;;;;12.27;6.67;;;5.70;99.90;;;;;;5073513;28;20067;-74
2021/12/07 14:42:31;;;;;;;19.90;7.27;;;5.70;99.90;;;;;;5072054;28;20094;-75
2021/12/07 14:44:58;;;;;;;16.73;6.73;;;5.60;99.90;;;;;;5073243;28;20082;-72
2021/12/07 14:47:25;;;;;;;16.23;6.80;;;5.60;99.90;;;;;;5072680;28;20056;-76
2021/12/07 14:49:56;;;;;;;17.67;7.17;;;5.60;99.90;;;;;;5072376;28;20294;-74
2021/12/07 14:52:29;;;;;;;18.55;8.65;;;5.50;99.90;;;;;;5074166;28;20041;-78
2021/12/07 14:54:56;;;;;;;13.80;8.97;;;5.50;99.90;;;;;;5072601;28;20051;-77
2021/12/07 14:57:22;;;;;;;16.83;7.73;;;5.40;99.90;;;;;;5074299;28;20072;-73
2021/12/07 14:59:51;;;;;;;19.17;9.47;;;5.30;99.90;;;;;;5073583;28;20052;-74
2021/12/07 15:02:18;;;;;;;19.27;8.60;;;5.30;99.90;;;;;;5070965;28;20130;-73
2021/12/07 15:04:43;;;;;;;18.30;8.17;;;5.30;99.90;;;;;;5088815;28;20322;-77
2021/12/07 15:07:12;;;;;;;14.50;8.23;;;5.20;99.90;;;;;;5072538;28;20374;-78
2021/12/07 15:09:40;;;;;;;17.57;8.23;;;5.20;99.90;;;;;;5071266;28;20056;-72
2021/12/07 15:12:08;;;;;;;18.07;9.17;;;5.10;99.90;;;;;;5106154;28;20291;-76
2021/12/07 15:14:33;;;;;;;13.33;7.90;;;5.00;99.90;;;;;;5089327;28;20053;-75
2021/12/07 15:17:03;;;;;;;15.80;9.77;;;5.00;99.90;;;;;;5088526;28;20298;-75
2021/12/07 15:19:30;;;;;;;26.43;12.57;;;4.90;99.90;;;;;;5105933;28;20045;-76
2021/12/07 15:21:57;;;;;;;19.33;9.40;;;4.90;99.90;;;;;;5073409;28;20287;-76
2021/12/07 15:24:26;;;;;;;23.47;10.23;;;4.90;99.90;;;;;;5071231;28;20314;-78
2021/12/07 15:26:53;;;;;;;24.03;16.10;;;4.90;99.90;;;;;;5087898;28;20301;-76
2021/12/07 15:29:24;;;;;;;18.53;9.83;;;4.90;99.90;;;;;;5073348;28;20291;-76
2021/12/07 15:31:53;;;;;;;23.07;10.13;;;4.90;99.90;;;;;;5087709;28;20310;-73
2021/12/07 15:34:22;;;;;;;21.40;9.87;;;4.90;99.90;;;;;;5051871;28;20784;-74
2021/12/07 15:36:57;;;;;;;21.63;10.13;;;4.80;99.90;;;;;;5083980;28;20291;-76
2021/12/07 15:39:25;;;;;;;22.50;11.30;;;4.80;99.90;;;;;;5067388;28;20758;-74
2021/12/07 15:41:58;;;;;;;25.93;11.37;;;4.80;99.90;;;;;;5052523;28;20778;-84
2021/12/07 15:44:26;;;;;;;19.50;10.43;;;4.70;99.90;;;;;;5051695;28;20319;-82
2021/12/07 15:46:59;;;;;;;21.37;10.67;;;4.70;99.90;;;;;;5068024;28;20295;-79
2021/12/07 15:49:36;;;;;;;23.07;11.27;;;4.70;99.90;;;;;;5067300;28;20353;-82
2021/12/07 15:52:12;;;;;;;21.77;10.13;;;4.70;99.90;;;;;;5050088;28;20283;-81
2021/12/07 15:54:38;;;;;;;19.90;10.00;;;4.70;99.90;;;;;;5051692;28;20280;-78
2021/12/07 15:57:10;;;;;;;20.90;10.93;;;4.60;99.90;;;;;;5052534;28;20291;-79
2021/12/07 15:59:38;;;;;;;17.50;10.82;;;4.60;99.90;;;;;;5066180;28;20301;-80
2021/12/07 16:02:08;;;;;;;20.00;10.73;;;4.50;99.90;;;;;;5083949;28;20390;-78
2021/12/07 16:04:37;;;;;;;24.17;10.63;;;4.50;99.90;;;;;;5051852;28;20604;-79
2021/12/07 16:07:18;;;;;;;21.20;10.30;;;4.50;99.90;;;;;;5051548;28;20405;-78
2021/12/07 16:09:44;;;;;;;27.45;11.35;;;4.40;99.90;;;;;;5052143;28;20287;-78
2021/12/07 16:12:14;;;;;;;19.37;11.00;;;4.40;99.90;;;;;;5050994;28;20398;-77
2021/12/07 16:14:40;;;;;;;19.63;11.17;;;4.40;99.90;;;;;;5083998;28;20394;-78
2021/12/07 16:17:20;;;;;;;18.77;10.63;;;4.30;99.90;;;;;;5052163;28;20279;-79
2021/12/07 16:19:47;;;;;;;23.73;10.80;;;4.30;99.90;;;;;;5049789;28;20295;-77
2021/12/07 16:22:13;;;;;;;20.80;11.80;;;4.30;99.90;;;;;;5067124;28;20288;-77
2021/12/07 16:24:41;;;;;;;18.20;11.30;;;4.20;99.90;;;;;;5051419;28;20398;-76
2021/12/07 16:27:06;;;;;;;22.20;12.00;;;4.20;99.90;;;;;;5051418;28;20785;-77
2021/12/07 16:29:32;;;;;;;29.43;16.10;;;4.20;99.90;;;;;;5061915;28;20379;-74
2021/12/07 16:32:01;;;;;;;24.13;16.23;;;4.20;99.90;;;;;;5070714;28;20067;-76
2021/12/07 16:34:26;;;;;;;23.40;15.43;;;4.10;99.90;;;;;;5069099;28;20417;-83
2021/12/07 16:36:52;;;;;;;26.10;15.33;;;4.10;99.90;;;;;;5070177;28;20371;-79
2021/12/07 16:39:18;;;;;;;23.37;13.57;;;4.20;99.90;;;;;;5071436;28;20118;-79
2021/12/07 16:41:43;;;;;;;24.27;13.37;;;4.20;99.90;;;;;;5070575;28;20044;-78
2021/12/07 16:44:09;;;;;;;27.97;14.20;;;4.20;99.90;;;;;;5071431;28;20041;-79
2021/12/07 16:46:35;;;;;;;22.40;14.37;;;4.10;99.90;;;;;;5071500;28;20094;-79
2021/12/07 16:49:02;;;;;;;25.70;15.20;;;4.10;99.90;;;;;;5069241;28;20055;-76
2021/12/07 16:51:29;;;;;;;25.47;14.83;;;4.10;99.90;;;;;;5071081;28;20401;-76
2021/12/07 16:53:55;;;;;;;25.07;15.63;;;4.00;99.90;;;;;;5070038;28;20298;-79
2021/12/07 16:56:20;;;;;;;24.73;15.40;;;4.00;99.90;;;;;;5070708;28;20293;-76
2021/12/07 16:58:46;;;;;;;24.63;15.37;;;4.00;99.90;;;;;;5070200;28;20402;-74
2021/12/07 17:01:13;;;;;;;28.27;17.13;;;3.90;99.90;;;;;;5070631;28;20135;-77
2021/12/07 17:03:40;;;;;;;20.30;16.20;;;3.90;99.90;;;;;;5068731;28;20060;-74
2021/12/07 17:06:07;;;;;;;25.80;16.03;;;3.90;99.90;;;;;;5071497;28;20286;-73
2021/12/07 17:08:34;;;;;;;28.53;17.13;;;3.80;99.90;;;;;;5070607;28;20386;-77
2021/12/07 17:11:00;;;;;;;29.43;17.00;;;3.80;99.90;;;;;;5071637;28;20662;-76
2021/12/07 17:13:25;;;;;;;29.40;18.60;;;3.80;99.90;;;;;;5069872;28;20295;-76
2021/12/07 17:15:51;;;;;;;29.27;17.87;;;3.80;99.90;;;;;;5069493;28;20519;-74
2021/12/07 17:18:18;;;;;;;30.13;20.60;;;3.80;99.90;;;;;;5069900;28;20055;-80
2021/12/07 17:20:46;;;;;;;29.40;20.27;;;3.80;99.90;;;;;;5070831;28;20167;-75
2021/12/07 17:23:14;;;;;;;34.47;20.37;;;3.70;99.90;;;;;;5086144;28;20357;-75
2021/12/07 17:25:40;;;;;;;30.63;19.63;;;3.80;99.90;;;;;;5070852;28;20348;-76
2021/12/07 17:28:06;;;;;;;36.67;21.70;;;3.70;99.90;;;;;;5069666;28;20287;-76
2021/12/07 17:30:33;;;;;;;28.10;20.37;;;3.70;99.90;;;;;;5070037;28;20444;-76
2021/12/07 17:32:59;;;;;;;37.73;20.67;;;3.70;99.90;;;;;;5070993;28;20283;-76
2021/12/07 17:35:25;;;;;;;35.67;19.77;;;3.70;99.90;;;;;;5069650;28;20291;-78
2021/12/07 17:37:51;;;;;;;32.30;20.83;;;3.70;99.90;;;;;;5068920;28;20330;-73
2021/12/07 17:40:21;;;;;;;34.93;21.20;;;3.70;99.90;;;;;;5069605;28;20301;-74
2021/12/07 17:42:47;;;;;;;31.97;20.43;;;3.70;99.90;;;;;;5071045;28;20452;-76
2021/12/07 17:45:14;;;;;;;35.27;21.63;;;3.70;99.90;;;;;;5069910;28;20331;-75
2021/12/07 17:47:40;;;;;;;34.50;21.07;;;3.70;99.90;;;;;;5069207;28;20772;-75
2021/12/07 19:14:10;;;;;;;21.17;12.63;;;3.70;99.90;;;;;;5124375;27;20370;-73
2021/12/07 19:16:40;;;;;;;21.63;13.07;;;3.70;99.90;;;;;;5127842;28;20277;-73
2021/12/07 19:19:07;;;;;;;28.47;14.13;;;3.70;99.90;;;;;;5128768;28;20880;-73
2021/12/07 19:21:33;;;;;;;23.43;12.50;;;3.80;99.90;;;;;;5128857;28;20280;-78
2021/12/07 19:23:59;;;;;;;22.07;13.67;;;3.80;99.90;;;;;;5127951;28;20364;-74
2021/12/07 19:26:25;;;;;;;19.43;12.93;;;3.80;99.90;;;;;;5129656;27;20375;-73
2021/12/07 19:28:51;;;;;;;22.73;11.63;;;3.90;99.90;;;;;;5129896;27;20785;-74
2021/12/07 19:31:18;;;;;;;19.20;11.73;;;3.90;99.90;;;;;;5128921;27;20476;-75
2021/12/07 19:33:45;;;;;;;15.37;10.90;;;3.90;99.90;;;;;;5129368;27;20796;-81
2021/12/07 19:36:11;;;;;;;15.13;10.57;;;3.90;99.90;;;;;;5128059;28;20285;-80
2021/12/07 19:38:38;;;;;;;19.97;10.07;;;4.00;99.90;;;;;;5128802;28;20300;-77
2021/12/07 19:41:04;;;;;;;21.00;11.60;;;4.00;99.90;;;;;;5128232;28;20425;-78
2021/12/07 19:43:30;;;;;;;24.23;11.03;;;4.00;99.90;;;;;;5129193;27;20296;-78
2021/12/07 19:45:58;;;;;;;16.03;9.00;;;4.10;99.90;;;;;;5128457;28;20308;-76
2021/12/07 19:48:25;;;;;;;17.13;8.97;;;4.10;99.90;;;;;;5128193;28;20289;-78
2021/12/07 19:50:56;;;;;;;21.10;11.37;;;4.10;99.90;;;;;;5127712;28;20687;-78
2021/12/07 19:53:25;;;;;;;13.97;8.73;;;4.10;99.90;;;;;;5127993;28;20334;-77
2021/12/07 19:55:53;;;;;;;14.50;9.30;;;4.10;99.90;;;;;;5129940;27;20318;-73
2021/12/07 19:58:20;;;;;;;14.23;7.40;;;4.10;99.90;;;;;;5131333;27;20319;-82
2021/12/07 20:00:53;;;;;;;15.87;7.43;;;4.20;99.90;;;;;;5168626;27;20649;-81
2021/12/07 20:03:19;;;;;;;13.17;6.70;;;4.20;99.90;;;;;;5132454;27;20320;-81
2021/12/07 20:05:46;;;;;;;15.33;6.60;;;4.20;99.90;;;;;;5128966;27;20293;-74
